Time;durP1;ratioP1;P1;durP2;ratioP2;P2;SDS_P1;SDS_P2;PMS_P1;PMS_P2;Temp;Humidity;BMP_temperature;BMP_pressure;BME280_temperature;BME280_humidity;BME280_pressure;Samples;Min_cycle;Max_cycle;Signal;HPM_P1;HPM_P2
2023/03/17 00:01:02;;;;;;;;;;;7.60;99.90;;;;;;5054644;28;20397;-70
2023/03/17 00:03:30;;;;;;;;;;;7.60;99.90;;;;;;5054412;28;19909;-70
2023/03/17 00:05:57;;;;;;;;;;;7.60;99.90;;;;;;5054983;28;19916;-70
2023/03/17 00:08:25;;;;;;;;;;;7.60;99.90;;;;;;5055620;28;19963;-70
2023/03/17 00:10:51;;;;;;;;;;;7.60;99.90;;;;;;5054673;28;19913;-70
2023/03/17 00:13:16;;;;;;;;;;;7.70;99.90;;;;;;5054969;28;19931;-69
2023/03/17 00:15:43;;;;;;;;;;;7.70;99.90;;;;;;5053582;28;19909;-70
2023/03/17 00:18:18;;;;;;;;;;;7.60;99.90;;;;;;5053390;28;19913;-70
2023/03/17 00:20:45;;;;;;;;;;;7.60;99.90;;;;;;5053229;28;20383;-70
2023/03/17 00:23:24;;;;;;;;;;;7.70;99.90;;;;;;5053095;28;19963;-70
2023/03/17 00:25:52;;;;;;;;;;;7.60;99.90;;;;;;5053246;28;19909;-70
2023/03/17 00:28:19;;;;;;;;;;;7.60;99.90;;;;;;5053457;28;19908;-70
2023/03/17 00:30:46;;;;;;;;;;;7.40;99.90;;;;;;5053123;28;19921;-70
2023/03/17 00:33:14;;;;;;;;;;;7.40;99.90;;;;;;5052070;28;19931;-70
2023/03/17 00:35:41;;;;;;;;;;;7.40;99.90;;;;;;5053066;28;19913;-69
2023/03/17 00:38:10;;;;;;;;;;;7.40;99.90;;;;;;5053368;28;20370;-70
2023/03/17 00:40:35;;;;;;;;;;;7.30;99.90;;;;;;5052534;28;19916;-70
2023/03/17 00:43:04;;;;;;;;;;;7.30;99.90;;;;;;5054850;28;19917;-69
2023/03/17 00:45:29;;;;;;;;;;;7.20;99.90;;;;;;5054376;28;19912;-69
2023/03/17 00:47:55;;;;;;;;;;;7.20;99.90;;;;;;5054019;28;19915;-70
2023/03/17 00:50:23;;;;;;;;;;;7.40;99.90;;;;;;5053712;28;19916;-70
2023/03/17 00:52:50;;;;;;;;;;;7.40;99.90;;;;;;5054411;28;19944;-70
2023/03/17 00:55:16;;;;;;;;;;;7.50;99.90;;;;;;5053592;28;19909;-70
2023/03/17 00:57:42;;;;;;;;;;;7.50;99.90;;;;;;5054471;28;20507;-69
2023/03/17 01:00:27;;;;;;;;;;;7.40;99.90;;;;;;5053608;28;19948;-69
2023/03/17 01:02:53;;;;;;;;;;;7.30;99.90;;;;;;5053412;28;19908;-69
2023/03/17 01:05:19;;;;;;;;;;;7.30;99.90;;;;;;5053785;28;19913;-70
2023/03/17 01:07:51;;;;;;;;;;;7.20;99.90;;;;;;5054076;28;19920;-69
2023/03/17 01:10:22;;;;;;;;;;;7.10;99.90;;;;;;5052134;28;19909;-70
2023/03/17 01:12:49;;;;;;;;;;;7.20;99.90;;;;;;5053876;28;19913;-70
2023/03/17 01:15:15;;;;;;;;;;;7.10;99.90;;;;;;5053910;28;20444;-69
2023/03/17 01:17:40;;;;;;;;;;;7.10;99.90;;;;;;5053967;28;19909;-69
2023/03/17 01:20:09;;;;;;;;;;;7.20;99.90;;;;;;5053360;28;19915;-70
2023/03/17 01:22:35;;;;;;;;;;;7.20;99.90;;;;;;5053116;28;19924;-69
2023/03/17 01:25:01;;;;;;;;;;;7.20;99.90;;;;;;5053550;28;19909;-70
2023/03/17 01:27:27;;;;;;;;;;;7.20;99.90;;;;;;5053257;28;19978;-70
2023/03/17 01:29:54;;;;;;;;;;;7.10;99.90;;;;;;5053293;28;19909;-70
2023/03/17 01:32:21;;;;;;;;;;;7.10;99.90;;;;;;5053238;28;20042;-69
2023/03/17 01:34:46;;;;;;;;;;;7.20;99.90;;;;;;5053512;28;19983;-70
2023/03/17 01:37:13;;;;;;;;;;;7.10;99.90;;;;;;5053816;28;19913;-69
2023/03/17 01:39:39;;;;;;;;;;;7.10;99.90;;;;;;5053084;28;19913;-69
2023/03/17 01:42:06;;;;;;;;;;;7.10;99.90;;;;;;5053780;28;19963;-73
2023/03/17 01:44:31;;;;;;;;;;;7.00;99.90;;;;;;5053526;28;19909;-69
2023/03/17 01:46:57;;;;;;;;;;;7.10;99.90;;;;;;5053129;28;19909;-70
2023/03/17 01:49:26;;;;;;;;;;;7.00;99.90;;;;;;5053190;28;19909;-70
2023/03/17 01:52:01;;;;;;;;;;;7.10;99.90;;;;;;5053179;28;20378;-70
2023/03/17 01:54:27;;;;;;;;;;;7.20;99.90;;;;;;5052909;28;19994;-69
2023/03/17 01:56:56;;;;;;;;;;;7.30;99.90;;;;;;5053062;28;19917;-69
2023/03/17 01:59:24;;;;;;;;;;;7.40;99.90;;;;;;5052878;28;20286;-69
2023/03/17 02:01:52;;;;;;;;;;;7.40;99.90;;;;;;5051775;28;19909;-70
2023/03/17 02:04:18;;;;;;;;;;;7.30;99.90;;;;;;5052924;28;19920;-70
2023/03/17 02:06:44;;;;;;;;;;;7.30;99.90;;;;;;5053088;28;19916;-70
2023/03/17 02:09:09;;;;;;;;;;;7.20;99.90;;;;;;5053287;28;20286;-70
2023/03/17 02:11:35;;;;;;;;;;;7.10;99.90;;;;;;5051584;28;19942;-70
2023/03/17 02:14:01;;;;;;;;;;;7.20;99.90;;;;;;5052890;28;19909;-69
2023/03/17 02:16:28;;;;;;;;;;;7.20;99.90;;;;;;5053179;28;19909;-70
2023/03/17 02:18:54;;;;;;;;;;;7.20;99.90;;;;;;5052784;28;19953;-69
2023/03/17 02:21:32;;;;;;;;;;;7.20;99.90;;;;;;5052669;28;20263;-69
2023/03/17 02:23:59;;;;;;;;;;;7.20;99.90;;;;;;5051412;28;20019;-69
2023/03/17 02:26:27;;;;;;;;;;;7.20;99.90;;;;;;5052921;28;19908;-70
2023/03/17 02:28:52;;;;;;;;;;;7.10;99.90;;;;;;5052954;28;19933;-70
2023/03/17 02:31:18;;;;;;;;;;;7.00;99.90;;;;;;5052628;28;19913;-70
2023/03/17 02:33:44;;;;;;;;;;;7.20;99.90;;;;;;5052837;28;20050;-70
2023/03/17 02:36:09;;;;;;;;;;;7.20;99.90;;;;;;5052852;28;19909;-70
2023/03/17 02:38:35;;;;;;;;;;;7.10;99.90;;;;;;5054714;28;19908;-70
2023/03/17 02:41:01;;;;;;;;;;;7.10;99.90;;;;;;5056527;28;20431;-69
2023/03/17 02:43:27;;;;;;;;;;;7.10;99.90;;;;;;5058977;28;20386;-70
2023/03/17 02:45:52;;;;;;;;;;;7.00;99.90;;;;;;5060546;28;19983;-70
2023/03/17 02:48:18;;;;;;;;;;;6.90;99.90;;;;;;5061284;28;19913;-70
2023/03/17 02:50:44;;;;;;;;;;;6.90;99.90;;;;;;5060888;28;19912;-70
2023/03/17 02:53:09;;;;;;;;;;;6.80;99.90;;;;;;5059232;28;20028;-70
2023/03/17 02:55:35;;;;;;;;;;;6.80;99.90;;;;;;5056573;28;19909;-70
2023/03/17 02:58:02;;;;;;;;;;;6.90;99.90;;;;;;5056252;28;19908;-69
2023/03/17 03:00:28;;;;;;;;;;;7.00;99.90;;;;;;5056054;28;19976;-69
2023/03/17 03:02:54;;;;;;;;;;;7.10;99.90;;;;;;5055895;28;20241;-69
2023/03/17 03:05:20;;;;;;;;;;;7.00;99.90;;;;;;5056434;28;19995;-69
2023/03/17 03:07:45;;;;;;;;;;;7.10;99.90;;;;;;5056304;28;19912;-69
2023/03/17 03:10:12;;;;;;;;;;;7.10;99.90;;;;;;5056090;28;20282;-69
2023/03/17 03:12:38;;;;;;;;;;;7.00;99.90;;;;;;5054469;28;19913;-69
2023/03/17 03:15:04;;;;;;;;;;;6.80;99.90;;;;;;5056016;28;19909;-69
2023/03/17 03:17:30;;;;;;;;;;;6.80;99.90;;;;;;5056081;28;20000;-69
2023/03/17 03:19:56;;;;;;;;;;;6.80;99.90;;;;;;5055363;28;19909;-69
2023/03/17 03:22:22;;;;;;;;;;;6.70;99.90;;;;;;5055751;28;19971;-69
2023/03/17 03:24:48;;;;;;;;;;;6.70;99.90;;;;;;5055784;28;19912;-69
2023/03/17 03:27:13;;;;;;;;;;;6.70;99.90;;;;;;5055436;28;19916;-70
2023/03/17 03:29:39;;;;;;;;;;;6.70;99.90;;;;;;5055449;28;19912;-69
2023/03/17 03:32:05;;;;;;;;;;;6.60;99.90;;;;;;5055601;28;20366;-69
2023/03/17 03:34:31;;;;;;;;;;;6.60;99.90;;;;;;5055379;28;19909;-69
2023/03/17 03:36:56;;;;;;;;;;;6.50;99.90;;;;;;5055545;28;19909;-70
2023/03/17 03:39:22;;;;;;;;;;;6.40;99.90;;;;;;5055205;28;19919;-69
2023/03/17 03:41:48;;;;;;;;;;;6.50;99.90;;;;;;5055886;28;19940;-69
2023/03/17 03:44:13;;;;;;;;;;;6.50;99.90;;;;;;5055458;28;19963;-69
2023/03/17 03:46:39;;;;;;;;;;;6.50;99.90;;;;;;5055707;28;19939;-69
2023/03/17 03:49:05;;;;;;;;;;;6.50;99.90;;;;;;5054673;28;19945;-69
2023/03/17 03:51:30;;;;;;;;;;;6.60;99.90;;;;;;5054669;28;20395;-69
2023/03/17 03:53:56;;;;;;;;;;;6.60;99.90;;;;;;5055315;28;19916;-69
2023/03/17 03:56:22;;;;;;;;;;;6.60;99.90;;;;;;5054407;28;19909;-69
2023/03/17 03:58:47;;;;;;;;;;;6.60;99.90;;;;;;5055212;28;19931;-70
2023/03/17 04:01:13;;;;;;;;;;;6.60;99.90;;;;;;5054829;28;19991;-70
2023/03/17 04:03:39;;;;;;;;;;;6.60;99.90;;;;;;5055269;28;19923;-69
2023/03/17 04:06:05;;;;;;;;;;;6.50;99.90;;;;;;5055058;28;19909;-69
2023/03/17 04:08:31;;;;;;;;;;;6.50;99.90;;;;;;5055210;28;19909;-70
2023/03/17 04:10:57;;;;;;;;;;;6.50;99.90;;;;;;5054423;28;20357;-69
2023/03/17 04:13:22;;;;;;;;;;;6.40;99.90;;;;;;5054805;28;19909;-69
2023/03/17 04:15:48;;;;;;;;;;;6.30;99.90;;;;;;5055178;28;19909;-69
2023/03/17 04:18:14;;;;;;;;;;;6.50;99.90;;;;;;5054701;28;19981;-69
2023/03/17 04:20:40;;;;;;;;;;;6.40;99.90;;;;;;5054719;28;19909;-70
2023/03/17 04:23:06;;;;;;;;;;;6.40;99.90;;;;;;5054850;28;19916;-69
2023/03/17 04:25:32;;;;;;;;;;;6.50;99.90;;;;;;5054716;28;19909;-70
2023/03/17 04:27:58;;;;;;;;;;;6.60;99.90;;;;;;5055070;28;19916;-69
2023/03/17 04:30:23;;;;;;;;;;;6.60;99.90;;;;;;5054431;28;19916;-74
2023/03/17 04:32:49;;;;;;;;;;;6.60;99.90;;;;;;5054401;28;19920;-73
2023/03/17 04:35:16;;;;;;;;;;;6.60;99.90;;;;;;5054483;28;19984;-69
2023/03/17 04:37:42;;;;;;;;;;;6.60;99.90;;;;;;5054631;28;20393;-70
2023/03/17 04:40:09;;;;;;;;;;;6.60;99.90;;;;;;5054114;28;20004;-69
2023/03/17 04:42:35;;;;;;;;;;;6.80;99.90;;;;;;5054430;28;19947;-70
2023/03/17 04:45:01;;;;;;;;;;;6.70;99.90;;;;;;5054415;28;20363;-73
2023/03/17 04:47:27;;;;;;;;;;;6.70;99.90;;;;;;5053342;28;20229;-69
2023/03/17 04:49:52;;;;;;;;;;;6.70;99.90;;;;;;5053924;28;19909;-69
2023/03/17 04:52:18;;;;;;;;;;;6.70;99.90;;;;;;5054350;28;19913;-70
2023/03/17 04:54:44;;;;;;;;;;;6.80;99.90;;;;;;5054044;28;19913;-70
2023/03/17 04:57:12;;;;;;;;;;;6.80;99.90;;;;;;5054263;28;19909;-72
2023/03/17 04:59:37;;;;;;;;;;;6.70;99.90;;;;;;5053947;28;20474;-70
2023/03/17 05:02:03;;;;;;;;;;;6.60;99.90;;;;;;5054315;28;19963;-69
2023/03/17 05:04:28;;;;;;;;;;;6.50;99.90;;;;;;5054112;28;19920;-69
2023/03/17 05:06:57;;;;;;;;;;;6.50;99.90;;;;;;5054081;28;19909;-70
2023/03/17 05:09:23;;;;;;;;;;;6.40;99.90;;;;;;5053538;28;19952;-70
2023/03/17 05:11:48;;;;;;;;;;;6.40;99.90;;;;;;5054262;28;20098;-69
2023/03/17 05:14:14;;;;;;;;;;;6.40;99.90;;;;;;5052970;28;19908;-69
2023/03/17 05:16:40;;;;;;;;;;;6.40;99.90;;;;;;5054023;28;19908;-70
2023/03/17 05:19:05;;;;;;;;;;;6.40;99.90;;;;;;5052485;28;19916;-70
2023/03/17 05:21:31;;;;;;;;;;;6.50;99.90;;;;;;5053389;28;20392;-70
2023/03/17 05:23:57;;;;;;;;;;;6.40;99.90;;;;;;5054061;28;19925;-70
2023/03/17 05:26:23;;;;;;;;;;;6.40;99.90;;;;;;5054056;28;20283;-70
2023/03/17 05:28:48;;;;;;;;;;;6.40;99.90;;;;;;5054006;28;19908;-69
2023/03/17 05:31:14;;;;;;;;;;;6.40;99.90;;;;;;5053582;28;20265;-70
2023/03/17 05:33:40;;;;;;;;;;;6.40;99.90;;;;;;5053837;28;19913;-70
2023/03/17 05:36:06;;;;;;;;;;;6.40;99.90;;;;;;5054003;28;20290;-70
2023/03/17 05:38:31;;;;;;;;;;;6.40;99.90;;;;;;5053676;28;19963;-71
2023/03/17 05:40:57;;;;;;;;;;;6.50;99.90;;;;;;5053342;28;19920;-70
2023/03/17 05:43:23;;;;;;;;;;;6.50;99.90;;;;;;5053633;28;19951;-69
2023/03/17 05:45:49;;;;;;;;;;;6.60;99.90;;;;;;5053375;28;19948;-73
2023/03/17 05:48:15;;;;;;;;;;;6.60;99.90;;;;;;5053419;28;20400;-70
2023/03/17 05:50:42;;;;;;;;;;;6.70;99.90;;;;;;5053178;28;19909;-70
2023/03/17 05:53:08;;;;;;;;;;;6.60;99.90;;;;;;5053501;28;19908;-70
2023/03/17 05:55:34;;;;;;;;;;;6.50;99.90;;;;;;5051717;28;19931;-70
2023/03/17 05:58:00;;;;;;;;;;;6.50;99.90;;;;;;5052694;28;20393;-69
2023/03/17 06:00:27;;;;;;;;;;;6.60;99.90;;;;;;5052929;28;20338;-69
2023/03/17 06:02:53;;;;;;;;;;;6.70;99.90;;;;;;5053538;28;19916;-69
2023/03/17 06:05:19;;;;;;;;;;;6.80;99.90;;;;;;5053029;28;19913;-70
2023/03/17 06:07:45;;;;;;;;;;;6.80;99.90;;;;;;5053369;28;19912;-71
2023/03/17 06:10:11;;;;;;;;;;;6.90;99.90;;;;;;5052598;28;19909;-69
2023/03/17 06:12:36;;;;;;;;;;;6.90;99.90;;;;;;5054215;28;19913;-69
2023/03/17 06:15:02;;;;;;;;;;;6.90;99.90;;;;;;5057586;28;19916;-70
2023/03/17 06:17:28;;;;;;;;;;;7.00;99.90;;;;;;5058838;28;19913;-70
2023/03/17 06:19:54;;;;;;;;;;;7.00;99.90;;;;;;5057996;28;19915;-69
2023/03/17 06:22:19;;;;;;;;;;;7.00;99.90;;;;;;5056548;28;20015;-70
2023/03/17 06:24:45;;;;;;;;;;;7.10;99.90;;;;;;5057174;28;19920;-69
2023/03/17 06:27:13;;;;;;;;;;;7.10;99.90;;;;;;5057248;28;20380;-70
2023/03/17 06:29:38;;;;;;;;;;;7.20;99.90;;;;;;5057510;28;20278;-70
2023/03/17 06:32:04;;;;;;;;;;;7.30;99.90;;;;;;5057483;28;19913;-70
2023/03/17 06:34:30;;;;;;;;;;;7.20;99.90;;;;;;5055591;28;19915;-70
2023/03/17 06:36:56;;;;;;;;;;;7.40;99.90;;;;;;5056449;28;20024;-70
2023/03/17 06:39:22;;;;;;;;;;;7.60;99.90;;;;;;5056391;28;19919;-70
2023/03/17 06:41:48;;;;;;;;;;;7.70;99.90;;;;;;5056432;28;20405;-70
2023/03/17 06:44:13;;;;;;;;;;;7.70;99.90;;;;;;5056168;28;19999;-70
2023/03/17 06:46:40;;;;;;;;;;;7.80;99.90;;;;;;5056564;28;19913;-70
2023/03/17 06:49:06;;;;;;;;;;;7.80;99.90;;;;;;5056088;28;19909;-70
2023/03/17 06:51:33;;;;;;;;;;;7.90;99.90;;;;;;5055793;28;20145;-70
2023/03/17 06:53:58;;;;;;;;;;;8.00;99.90;;;;;;5056104;28;19916;-70
2023/03/17 06:56:24;;;;;;;;;;;8.00;99.90;;;;;;5056321;28;19909;-70
2023/03/17 06:58:50;;;;;;;;;;;8.00;99.90;;;;;;5056042;28;20378;-70
2023/03/17 07:01:16;;;;;;;;;;;8.10;99.90;;;;;;5056495;28;19916;-71
2023/03/17 07:03:42;;;;;;;;;;;8.10;99.90;;;;;;5056062;28;19908;-70
2023/03/17 07:06:08;;;;;;;;;;;8.10;99.90;;;;;;5056420;28;19916;-70
2023/03/17 07:08:34;;;;;;;;;;;8.10;99.90;;;;;;5056015;28;19908;-70
2023/03/17 07:11:00;;;;;;;;;;;8.20;99.90;;;;;;5055745;28;20382;-70
2023/03/17 07:13:26;;;;;;;;;;;8.30;99.90;;;;;;5056119;28;19917;-70
2023/03/17 07:15:52;;;;;;;;;;;8.40;99.90;;;;;;5056391;28;19909;-70
2023/03/17 07:18:19;;;;;;;;;;;8.50;99.90;;;;;;5056250;28;19909;-69
2023/03/17 07:20:45;;;;;;;;;;;8.80;99.90;;;;;;5055704;28;19920;-70
2023/03/17 07:23:14;;;;;;;;;;;9.20;99.90;;;;;;5056070;28;19948;-69
2023/03/17 07:25:42;;;;;;;;;;;9.30;99.90;;;;;;5055889;28;19944;-70
2023/03/17 07:28:08;;;;;;;;;;;9.40;99.90;;;;;;5055928;28;19916;-70
2023/03/17 07:30:34;;;;;;;;;;;9.40;99.90;;;;;;5055279;28;19908;-70
2023/03/17 07:33:00;;;;;;;;;;;9.40;99.90;;;;;;5055605;28;19923;-70
2023/03/17 07:35:26;;;;;;;;;;;9.40;99.90;;;;;;5055841;28;20375;-73
2023/03/17 07:37:52;;;;;;;;;;;9.50;99.90;;;;;;5055380;28;20203;-70
2023/03/17 07:40:17;;;;;;;;;;;9.60;99.90;;;;;;5055432;28;20339;-70
2023/03/17 07:42:44;;;;;;;;;;;9.60;99.90;;;;;;5055578;28;19971;-70
2023/03/17 07:45:10;;;;;;;;;;;9.50;99.90;;;;;;5055745;28;19919;-71
2023/03/17 07:47:36;;;;;;;;;;;9.60;99.90;;;;;;5055490;28;19916;-70
2023/03/17 07:50:02;;;;;;;;;;;9.60;99.90;;;;;;5054998;28;20275;-70
2023/03/17 07:52:27;;;;;;;;;;;9.70;99.90;;;;;;5055887;28;19913;-71
2023/03/17 07:54:54;;;;;;;;;;;9.70;99.90;;;;;;5055271;28;20316;-71
2023/03/17 07:57:20;;;;;;;;;;;9.70;99.90;;;;;;5055438;28;19915;-70
2023/03/17 07:59:46;;;;;;;;;;;9.70;99.90;;;;;;5054818;28;20473;-70
2023/03/17 08:02:15;;;;;;;;;;;9.80;99.90;;;;;;5055264;28;19917;-70
2023/03/17 08:04:41;;;;;;;;;;;9.90;99.90;;;;;;5055611;28;19915;-70
2023/03/17 08:07:07;;;;;;;;;;;9.90;99.90;;;;;;5055671;28;19908;-70
2023/03/17 08:09:33;;;;;;;;;;;9.90;99.90;;;;;;5054749;28;20398;-70
2023/03/17 08:11:59;;;;;;;;;;;10.00;99.90;;;;;;5055220;28;20364;-70
2023/03/17 08:14:25;;;;;;;;;;;10.00;99.90;;;;;;5054760;28;20243;-71
2023/03/17 08:16:51;;;;;;;;;;;10.10;99.90;;;;;;5053705;28;20361;-70
2023/03/17 08:19:17;;;;;;;;;;;10.10;99.90;;;;;;5054754;28;19909;-70
2023/03/17 08:21:43;;;;;;;;;;;10.10;99.90;;;;;;5055562;28;19916;-71
2023/03/17 08:24:09;;;;;;;;;;;10.10;99.90;;;;;;5054827;28;20083;-70
2023/03/17 08:26:36;;;;;;;;;;;10.30;99.90;;;;;;5055172;28;20384;-71
2023/03/17 08:29:03;;;;;;;;;;;10.30;99.90;;;;;;5055079;28;19909;-70
2023/03/17 08:31:29;;;;;;;;;;;10.30;99.90;;;;;;5054779;28;19923;-70
2023/03/17 08:33:55;;;;;;;;;;;10.40;99.90;;;;;;5054782;28;19909;-70
2023/03/17 08:36:22;;;;;;;;;;;10.50;99.90;;;;;;5053821;28;19960;-70
2023/03/17 08:38:48;;;;;;;;;;;10.50;99.90;;;;;;5054777;28;19909;-70
2023/03/17 08:41:15;;;;;;;;;;;10.40;99.90;;;;;;5054318;28;19909;-70
2023/03/17 08:43:42;;;;;;;;;;;10.40;99.90;;;;;;5054470;28;19909;-70
2023/03/17 08:46:12;;;;;;;;;;;10.40;99.90;;;;;;5054514;28;19915;-70
2023/03/17 08:48:38;;;;;;;;;;;10.50;99.90;;;;;;5054355;28;19912;-70
2023/03/17 08:51:04;;;;;;;;;;;10.40;99.90;;;;;;5054138;28;19962;-70
2023/03/17 08:53:31;;;;;;;;;;;10.40;99.90;;;;;;5054345;28;19909;-70
2023/03/17 08:55:56;;;;;;;;;;;10.30;99.90;;;;;;5053954;28;19919;-72
2023/03/17 08:58:23;;;;;;;;;;;10.30;99.90;;;;;;5054223;28;20282;-70
2023/03/17 09:00:48;;;;;;;;;;;10.20;99.90;;;;;;5053676;28;20278;-70
2023/03/17 09:03:15;;;;;;;;;;;10.20;99.90;;;;;;5053495;28;19909;-70
2023/03/17 09:05:41;;;;;;;;;;;10.20;99.90;;;;;;5052406;28;19916;-71
2023/03/17 09:08:07;;;;;;;;;;;10.10;99.90;;;;;;5054303;28;19954;-70
2023/03/17 09:10:33;;;;;;;;;;;10.10;99.90;;;;;;5053231;28;20011;-70
2023/03/17 09:13:02;;;;;;;;;;;10.10;99.90;;;;;;5053688;28;19913;-70
2023/03/17 09:15:29;;;;;;;;;;;10.10;99.90;;;;;;5054091;28;19963;-71
2023/03/17 09:17:54;;;;;;;;;;;10.10;99.90;;;;;;5053687;28;19977;-70
2023/03/17 09:20:21;;;;;;;;;;;10.10;99.90;;;;;;5053890;28;20430;-70
2023/03/17 09:22:47;;;;;;;;;;;10.00;99.90;;;;;;5053936;28;19947;-70
2023/03/17 09:25:14;;;;;;;;;;;10.00;99.90;;;;;;5054381;28;19908;-70
2023/03/17 09:27:40;;;;;;;;;;;10.10;99.90;;;;;;5054451;28;19909;-70
2023/03/17 09:30:06;;;;;;;;;;;10.20;99.90;;;;;;5053731;28;19908;-70
2023/03/17 09:32:32;;;;;;;;;;;10.20;99.90;;;;;;5053714;28;19913;-70
2023/03/17 09:34:57;;;;;;;;;;;10.20;99.90;;;;;;5053923;28;20298;-70
2023/03/17 09:37:23;;;;;;;;;;;10.30;99.90;;;;;;5054214;28;20317;-74
2023/03/17 09:39:50;;;;;;;;;;;10.40;99.90;;;;;;5052102;28;20313;-71
2023/03/17 09:42:35;;;;;;;;;;;10.40;99.90;;;;;;5054122;28;19962;-70
2023/03/17 09:45:05;;;;;;;;;;;10.40;99.90;;;;;;5054545;28;19912;-70
2023/03/17 09:47:30;;;;;;;;;;;10.40;99.90;;;;;;5054611;28;20135;-70
2023/03/17 09:49:58;;;;;;;;;;;10.50;99.90;;;;;;5054291;28;20283;-70
2023/03/17 09:52:27;;;;;;;;;;;10.60;99.90;;;;;;5053958;28;19912;-70
2023/03/17 09:54:53;;;;;;;;;;;10.50;99.90;;;;;;5053259;28;19915;-73
2023/03/17 09:57:28;;;;;;;;;;;10.50;99.90;;;;;;5053327;28;19913;-70
2023/03/17 10:00:00;;;;;;;;;;;10.40;99.90;;;;;;5052726;28;19909;-71
2023/03/17 10:02:28;;;;;;;;;;;10.40;99.90;;;;;;5052835;28;19999;-70
2023/03/17 10:04:53;;;;;;;;;;;10.40;99.90;;;;;;5053426;28;19999;-71
2023/03/17 10:07:25;;;;;;;;;;;10.50;99.90;;;;;;5052789;28;19981;-70
2023/03/17 10:10:03;;;;;;;;;;;10.60;99.90;;;;;;5053221;28;19955;-70
2023/03/17 10:12:44;;;;;;;;;;;10.70;99.90;;;;;;5053035;28;20359;-70
2023/03/17 10:15:26;;;;;;;;;;;10.80;99.90;;;;;;5052827;28;19920;-70
2023/03/17 10:17:52;;;;;;;;;;;10.80;99.90;;;;;;5053047;28;19934;-71
2023/03/17 10:20:18;;;;;;;;;;;10.70;99.90;;;;;;5052414;28;20345;-70
2023/03/17 10:22:57;;;;;;;;;;;10.80;99.90;;;;;;5052748;28;19919;-70
2023/03/17 10:25:25;;;;;;;;;;;10.80;99.90;;;;;;5052754;28;19909;-71
2023/03/17 10:27:55;;;;;;;;;;;10.80;99.90;;;;;;5052653;28;19916;-70
2023/03/17 10:30:22;;;;;;;;;;;10.80;99.90;;;;;;5052822;28;19915;-70
2023/03/17 10:32:49;;;;;;;;;;;10.80;99.90;;;;;;5052598;28;19917;-70
2023/03/17 10:35:15;;;;;;;;;;;10.80;99.90;;;;;;5052559;28;19913;-70
2023/03/17 10:37:44;;;;;;;;;;;10.90;99.90;;;;;;5052510;28;19909;-70
2023/03/17 10:40:24;;;;;;;;;;;10.80;99.90;;;;;;5052142;28;19909;-70
2023/03/17 10:43:06;;;;;;;;;;;10.80;99.90;;;;;;5052831;28;19936;-70
2023/03/17 10:45:34;;;;;;;;;;;10.80;99.90;;;;;;5052560;28;19909;-70
2023/03/17 10:48:03;;;;;;;;;;;10.70;99.90;;;;;;5052445;28;19917;-70
2023/03/17 10:50:32;;;;;;;;;;;10.80;99.90;;;;;;5052056;28;20449;-70
2023/03/17 10:53:00;;;;;;;;;;;10.80;99.90;;;;;;5052540;28;19912;-71
2023/03/17 10:55:31;;;;;;;;;;;10.90;99.90;;;;;;5052906;28;19915;-70
2023/03/17 10:58:00;;;;;;;;;;;10.90;99.90;;;;;;5052584;28;19962;-70
2023/03/17 11:00:27;;;;;;;;;;;11.00;99.90;;;;;;5055920;28;19959;-71
2023/03/17 11:02:57;;;;;;;;;;;11.00;99.90;;;;;;5056285;28;19909;-70
2023/03/17 11:05:23;;;;;;;;;;;11.00;99.90;;;;;;5056366;28;20399;-70
2023/03/17 11:07:55;;;;;;;;;;;11.00;99.90;;;;;;5056496;28;19968;-70
2023/03/17 11:10:22;;;;;;;;;;;11.00;99.90;;;;;;5056161;28;19909;-70
2023/03/17 11:12:53;;;;;;;;;;;11.00;99.90;;;;;;5056080;28;20229;-70
2023/03/17 11:15:20;;;;;;;;;;;11.00;99.90;;;;;;5055631;28;20422;-70
2023/03/17 11:17:51;;;;;;;;;;;11.10;99.90;;;;;;5055726;28;20371;-70
2023/03/17 11:20:33;;;;;;;;;;;11.10;99.90;;;;;;5056078;28;19913;-71
2023/03/17 11:23:05;;;;;;;;;;;11.10;99.90;;;;;;5056275;28;19916;-70
2023/03/17 11:25:31;;;;;;;;;;;11.10;99.90;;;;;;5055212;28;20003;-70
2023/03/17 11:27:57;;;;;;;;;;;11.10;99.90;;;;;;5054896;28;19951;-71
2023/03/17 11:30:22;;;;;;;;;;;11.10;99.90;;;;;;5054901;28;19909;-70
2023/03/17 11:32:55;;;;;;;;;;;11.10;99.90;;;;;;5054958;28;19912;-76
2023/03/17 11:35:29;;;;;;;;;;;11.20;99.90;;;;;;5055623;28;19944;-70
2023/03/17 11:38:03;;;;;;;;;;;11.20;99.90;;;;;;5055800;28;20327;-71
2023/03/17 11:40:33;;;;;;;;;;;11.30;99.90;;;;;;5054936;28;19913;-71
2023/03/17 11:43:19;;;;;;;;;;;11.30;99.90;;;;;;5055775;28;19944;-71
2023/03/17 11:45:48;;;;;;;;;;;11.30;99.90;;;;;;5056036;28;20371;-71
2023/03/17 11:48:14;;;;;;;;;;;11.30;99.90;;;;;;5055576;28;20333;-70
2023/03/17 11:50:44;;;;;;;;;;;11.20;99.90;;;;;;5054805;28;19912;-71
2023/03/17 11:53:29;;;;;;;;;;;11.30;99.90;;;;;;5056733;28;20314;-70
2023/03/17 11:56:05;;;;;;;;;;;11.30;99.90;;;;;;5055567;28;20456;-70
2023/03/17 11:58:37;;;;;;;;;;;11.50;99.90;;;;;;5055481;28;20314;-70
2023/03/17 12:01:07;;;;;;;;;;;11.60;99.90;;;;;;5055058;28;19908;-71
2023/03/17 12:03:37;;;;;;;;;;;11.50;99.90;;;;;;5054618;28;20359;-70
2023/03/17 12:06:05;;;;;;;;;;;11.40;99.90;;;;;;5054843;28;19999;-71
2023/03/17 12:08:38;;;;;;;;;;;11.40;99.90;;;;;;5053652;28;20097;-70
2023/03/17 12:11:12;;;;;;;;;;;11.40;99.90;;;;;;5053259;28;19920;-70
2023/03/17 12:13:45;;;;;;;;;;;11.50;99.90;;;;;;5054992;28;19916;-70
2023/03/17 12:16:32;;;;;;;;;;;11.50;99.90;;;;;;5054902;28;19909;-70
2023/03/17 12:19:10;;;;;;;;;;;11.50;99.90;;;;;;5054635;28;20054;-70
2023/03/17 12:21:49;;;;;;;;;;;11.50;99.90;;;;;;5054014;28;19909;-71
2023/03/17 12:24:16;;;;;;;;;;;11.60;99.90;;;;;;5053905;28;19921;-70
2023/03/17 12:26:59;;;;;;;;;;;11.70;99.90;;;;;;5054142;28;19909;-72
2023/03/17 12:29:25;;;;;;;;;;;11.70;99.90;;;;;;5053127;28;20003;-71
2023/03/17 12:32:17;;;;;;;;;;;11.70;99.90;;;;;;5054266;28;20389;-74
2023/03/17 12:34:43;;;;;;;;;;;11.70;99.90;;;;;;5052602;28;19909;-72
2023/03/17 12:37:11;;;;;;;;;;;11.70;99.90;;;;;;5053917;28;20201;-71
2023/03/17 12:39:39;;;;;;;;;;;11.70;99.90;;;;;;5054368;28;19970;-70
2023/03/17 12:42:20;;;;;;;;;;;11.70;99.90;;;;;;5054731;28;19954;-71
2023/03/17 12:44:58;;;;;;;;;;;11.70;99.90;;;;;;5054485;28;19909;-70
2023/03/17 12:47:29;;;;;;;;;;;11.70;99.90;;;;;;5054943;28;19930;-71
2023/03/17 12:49:54;;;;;;;;;;;11.80;99.90;;;;;;5055967;28;19908;-71
2023/03/17 12:52:23;;;;;;;;;;;11.80;99.90;;;;;;5053858;28;19952;-71
2023/03/17 12:54:50;;;;;;;;;;;11.80;99.90;;;;;;5053279;28;19912;-71
2023/03/17 12:57:20;;;;;;;;;;;11.70;99.90;;;;;;5053990;28;19909;-73
2023/03/17 12:59:47;;;;;;;;;;;11.60;99.90;;;;;;5053511;28;20359;-71
2023/03/17 13:02:14;;;;;;;;;;;11.60;99.90;;;;;;5053489;28;20278;-71
2023/03/17 13:04:46;;;;;;;;;;;11.60;99.90;;;;;;5053890;28;19909;-70
2023/03/17 13:07:12;;;;;;;;;;;11.70;99.90;;;;;;5052965;28;19916;-71
2023/03/17 13:09:45;;;;;;;;;;;11.80;99.90;;;;;;5053531;28;20278;-72
2023/03/17 13:12:30;;;;;;;;;;;11.80;99.90;;;;;;5053913;28;19913;-71
2023/03/17 13:14:56;;;;;;;;;;;11.80;99.90;;;;;;5054520;28;20011;-71
2023/03/17 13:17:24;;;;;;;;;;;11.80;99.90;;;;;;5054835;28;20019;-70
2023/03/17 13:20:11;;;;;;;;;;;11.80;99.90;;;;;;5053818;28;20013;-71
2023/03/17 13:22:38;;;;;;;;;;;11.80;99.90;;;;;;5054519;28;20290;-71
2023/03/17 13:25:13;;;;;;;;;;;12.00;99.90;;;;;;5053532;28;19909;-70
2023/03/17 13:27:42;;;;;;;;;;;12.00;99.90;;;;;;5053532;28;19967;-70
2023/03/17 13:30:25;;;;;;;;;;;12.10;99.90;;;;;;5053668;28;20027;-71
2023/03/17 13:33:18;;;;;;;;;;;12.10;99.90;;;;;;5053406;28;19960;-71
2023/03/17 13:35:44;;;;;;;;;;;12.10;99.90;;;;;;5053646;28;19979;-70
2023/03/17 13:38:16;;;;;;;;;;;12.10;99.90;;;;;;5053660;28;20394;-75
2023/03/17 13:40:47;;;;;;;;;;;12.00;99.90;;;;;;5053243;28;19920;-71
2023/03/17 13:43:38;;;;;;;;;;;12.10;99.90;;;;;;5052964;28;19915;-71
2023/03/17 13:46:21;;;;;;;;;;;12.10;99.90;;;;;;5053302;28;19908;-70
2023/03/17 13:48:47;;;;;;;;;;;12.10;99.90;;;;;;5053271;28;19913;-72
2023/03/17 13:51:19;;;;;;;;;;;12.00;99.90;;;;;;5052593;28;20021;-71
2023/03/17 13:53:48;;;;;;;;;;;12.00;99.90;;;;;;5053017;28;20297;-71
2023/03/17 13:56:16;;;;;;;;;;;12.00;99.90;;;;;;5053117;28;19913;-71
2023/03/17 13:58:51;;;;;;;;;;;12.10;99.90;;;;;;5053503;28;20318;-71
2023/03/17 14:01:18;;;;;;;;;;;12.00;99.90;;;;;;5052147;28;20000;-71
2023/03/17 14:03:49;;;;;;;;;;;12.00;99.90;;;;;;5051125;28;19909;-71
2023/03/17 14:06:16;;;;;;;;;;;12.00;99.90;;;;;;5053205;28;19909;-71
2023/03/17 14:08:44;;;;;;;;;;;12.00;99.90;;;;;;5053155;28;19909;-71
2023/03/17 14:11:32;;;;;;;;;;;12.00;99.90;;;;;;5052351;28;19917;-71
2023/03/17 14:14:06;;;;;;;;;;;11.90;99.90;;;;;;5053115;28;20363;-71
2023/03/17 14:16:41;;;;;;;;;;;11.90;99.90;;;;;;5052898;28;19979;-71
2023/03/17 14:19:16;;;;;;;;;;;11.90;99.90;;;;;;5053030;28;19910;-70
2023/03/17 14:21:42;;;;;;;;;;;12.00;99.90;;;;;;5052538;28;19932;-71
2023/03/17 14:24:24;;;;;;;;;;;12.00;99.90;;;;;;5052673;28;20363;-71
2023/03/17 14:26:51;;;;;;;;;;;12.00;99.90;;;;;;5052632;28;19913;-70
2023/03/17 14:29:18;;;;;;;;;;;12.00;99.90;;;;;;5052680;28;20290;-71